createdAt,value
2022-09-05T00:00:11.649Z,2.93
2022-09-05T00:03:00.178Z,3.23
2022-09-05T00:06:02.685Z,3.10
2022-09-05T00:09:03.255Z,3.23
2022-09-05T00:11:44.236Z,3.50
2022-09-05T00:14:34.366Z,3.20
2022-09-05T00:17:42.458Z,2.70
2022-09-05T00:24:23.449Z,3.10
2022-09-05T00:24:37.401Z,3.03
2022-09-05T00:26:50.462Z,3.40
2022-09-05T00:31:07.968Z,2.90
2022-09-05T00:32:44.339Z,2.93
2022-09-05T00:35:35.924Z,2.90
2022-09-05T00:38:19.166Z,2.73
2022-09-05T00:41:02.452Z,3.17
2022-09-05T00:43:36.892Z,3.30
2022-09-05T00:46:15.062Z,3.43
2022-09-05T00:48:48.502Z,3.30
2022-09-05T00:51:29.279Z,3.37
2022-09-05T00:54:26.459Z,3.00
2022-09-05T00:57:31.508Z,3.17
2022-09-05T01:00:04.216Z,3.27
2022-09-05T01:02:53.007Z,3.00
2022-09-05T01:05:43.883Z,3.20
2022-09-05T01:08:25.938Z,3.30
2022-09-05T01:11:17.483Z,3.00
2022-09-05T01:14:10.672Z,3.20
2022-09-05T01:17:01.385Z,3.20
2022-09-05T01:19:31.097Z,3.20
2022-09-05T01:22:09.597Z,3.10
2022-09-05T01:25:04.514Z,2.90
2022-09-05T01:28:30.891Z,3.23
2022-09-05T01:30:43.005Z,3.57
2022-09-05T01:33:25.390Z,3.60
2022-09-05T01:36:20.244Z,3.60
2022-09-05T01:40:01.715Z,3.50
2022-09-05T01:42:41.898Z,3.37
2022-09-05T01:45:24.584Z,3.60
2022-09-05T01:48:12.619Z,4.17
2022-09-05T01:50:58.694Z,4.40
2022-09-05T01:53:56.883Z,4.00
2022-09-05T01:56:42.152Z,3.90
2022-09-05T01:59:33.312Z,3.67
2022-09-05T02:02:22.639Z,3.80
2022-09-05T02:05:11.166Z,3.77
2022-09-05T02:07:43.984Z,4.30
2022-09-05T02:10:48.800Z,3.60
2022-09-05T02:13:26.506Z,3.87
2022-09-05T02:16:04.610Z,3.60
2022-09-05T02:18:46.621Z,3.77
2022-09-05T02:21:28.046Z,3.80
2022-09-05T02:24:43.863Z,4.10
2022-09-05T02:27:48.998Z,3.87
2022-09-05T02:30:10.869Z,3.87
2022-09-05T02:32:53.561Z,3.60
2022-09-05T02:35:40.964Z,4.07
2022-09-05T02:45:00.595Z,3.90
2022-09-05T02:45:02.094Z,4.00
2022-09-05T02:45:07.734Z,3.97
2022-09-05T02:47:35.638Z,4.00
2022-09-05T02:52:30.677Z,3.40
2022-09-05T02:57:34.740Z,3.70
2022-09-05T02:58:06.682Z,3.83
2022-09-05T02:59:36.801Z,4.10
2022-09-05T03:02:27.269Z,3.70
2022-09-05T03:05:22.418Z,3.63
2022-09-05T03:08:04.242Z,3.60
2022-09-05T03:11:12.983Z,4.07
2022-09-05T03:14:01.666Z,3.67
2022-09-05T03:16:47.062Z,3.70
2022-09-05T03:19:51.638Z,4.00
2022-09-05T03:22:43.079Z,3.73
2022-09-05T03:26:01.125Z,3.57
2022-09-05T03:28:49.197Z,3.83
2022-09-05T03:31:25.533Z,3.43
2022-09-05T03:34:22.297Z,3.50
2022-09-05T03:37:07.761Z,3.70
2022-09-05T03:40:15.305Z,3.83
2022-09-05T03:43:01.425Z,3.70
2022-09-05T03:45:49.856Z,3.80
2022-09-05T03:48:29.317Z,3.67
2022-09-05T03:57:05.272Z,3.87
2022-09-05T03:57:11.566Z,3.60
2022-09-05T03:57:41.404Z,3.77
2022-09-05T04:00:22.467Z,3.80
2022-09-05T04:08:07.659Z,3.70
2022-09-05T04:08:16.719Z,3.77
2022-09-05T04:09:01.544Z,4.00
2022-09-05T04:11:45.014Z,4.07
2022-09-05T04:14:21.349Z,3.73
2022-09-05T04:16:56.776Z,4.10
2022-09-05T04:20:01.138Z,4.10
2022-09-05T04:23:05.267Z,4.00
2022-09-05T04:25:52.455Z,4.20
2022-09-05T04:28:36.087Z,4.43
2022-09-05T04:31:22.152Z,5.07
2022-09-05T04:34:23.186Z,3.90
2022-09-05T04:37:01.205Z,4.43
2022-09-05T04:39:29.414Z,4.77
2022-09-05T04:42:10.900Z,4.70
2022-09-05T04:44:56.631Z,4.90
2022-09-05T04:47:35.672Z,4.70
2022-09-05T04:50:08.212Z,4.60
2022-09-05T04:52:40.890Z,4.10
2022-09-05T04:55:23.360Z,4.40
2022-09-05T04:58:14.751Z,4.73
2022-09-05T05:06:00.245Z,4.43
2022-09-05T05:06:12.395Z,4.37
2022-09-05T05:06:47.639Z,4.97
2022-09-05T05:10:25.540Z,4.90
2022-09-05T05:17:55.977Z,4.33
2022-09-05T05:18:02.333Z,4.30
2022-09-05T05:19:03.588Z,4.03
2022-09-05T05:21:33.955Z,3.40
2022-09-05T05:24:15.504Z,3.90
2022-09-05T05:27:09.255Z,4.10
2022-09-05T05:29:51.078Z,3.80
2022-09-05T05:32:45.270Z,4.10
2022-09-05T05:35:20.233Z,3.77
2022-09-05T05:38:18.124Z,3.87
2022-09-05T05:40:51.251Z,3.97
2022-09-05T05:43:26.077Z,3.90
2022-09-05T05:45:59.345Z,3.50
2022-09-05T05:48:33.730Z,3.90
2022-09-05T05:51:34.569Z,3.97
2022-09-05T05:54:10.429Z,4.20
2022-09-05T05:56:58.462Z,4.10
2022-09-05T05:59:56.697Z,3.40
2022-09-05T06:02:58.720Z,4.20
2022-09-05T06:05:56.505Z,3.55
2022-09-05T06:13:02.258Z,3.20
2022-09-05T06:14:56.052Z,3.20
2022-09-05T06:15:42.824Z,3.40
2022-09-05T06:18:28.301Z,3.53
2022-09-05T06:22:10.742Z,3.55
2022-09-05T06:24:31.276Z,3.90
2022-09-05T06:27:35.362Z,3.38
2022-09-05T06:30:20.909Z,3.22
2022-09-05T06:33:14.706Z,3.20
2022-09-05T06:35:41.520Z,3.33
2022-09-05T06:38:47.271Z,3.35
2022-09-05T06:41:26.346Z,3.40
2022-09-05T06:44:12.799Z,3.50
2022-09-05T06:47:22.835Z,3.28
2022-09-05T06:49:46.101Z,3.15
2022-09-05T06:52:49.665Z,3.15
2022-09-05T06:55:35.101Z,3.33
2022-09-05T06:58:29.433Z,3.17
2022-09-05T07:01:01.391Z,3.15
2022-09-05T07:03:32.286Z,2.85
2022-09-05T07:06:48.089Z,3.13
2022-09-05T07:09:28.400Z,2.92
2022-09-05T07:12:29.984Z,3.05
2022-09-05T07:15:34.883Z,3.35
2022-09-05T07:18:18.728Z,3.42
2022-09-05T07:21:17.487Z,3.30
2022-09-05T07:24:09.365Z,3.20
2022-09-05T07:26:54.021Z,2.80
2022-09-05T07:29:52.474Z,2.90
2022-09-05T07:32:31.540Z,2.90
2022-09-05T07:35:02.888Z,3.40
2022-09-05T07:37:41.048Z,2.85
2022-09-05T07:40:25.378Z,2.72
2022-09-05T07:43:09.908Z,3.00
2022-09-05T07:45:55.265Z,2.50
2022-09-05T07:48:35.293Z,3.30
2022-09-05T07:56:50.385Z,3.00
2022-09-05T07:57:02.240Z,2.90
2022-09-05T07:59:55.335Z,2.80
2022-09-05T08:02:22.483Z,2.70
2022-09-05T08:04:50.233Z,2.50
2022-09-05T08:07:48.759Z,2.63
2022-09-05T08:10:31.049Z,2.80
2022-09-05T08:13:23.993Z,2.47
2022-09-05T08:16:13.558Z,2.50
2022-09-05T08:19:22.891Z,2.60
2022-09-05T08:21:53.551Z,2.28
2022-09-05T08:24:28.746Z,2.83
2022-09-05T08:27:13.791Z,2.50
2022-09-05T08:30:03.969Z,2.55
2022-09-05T08:33:10.584Z,2.40
2022-09-05T08:35:41.284Z,2.63
2022-09-05T08:38:08.750Z,2.50
2022-09-05T08:41:12.858Z,2.40
2022-09-05T08:46:39.570Z,2.45
2022-09-05T08:46:49.654Z,2.40
2022-09-05T08:49:38.762Z,2.55
2022-09-05T08:52:11.441Z,2.13
2022-09-05T08:55:16.540Z,2.20
2022-09-05T08:58:00.957Z,2.20
2022-09-05T09:00:32.586Z,2.40
2022-09-05T09:03:12.751Z,2.20
2022-09-05T09:06:14.217Z,2.50
2022-09-05T09:09:16.580Z,2.50
2022-09-05T09:11:56.778Z,2.00
2022-09-05T09:14:32.274Z,1.90
2022-09-05T09:17:20.924Z,1.67
2022-09-05T09:20:24.703Z,2.50
2022-09-05T09:22:54.216Z,2.15
2022-09-05T09:26:01.070Z,1.77
2022-09-05T09:29:03.790Z,1.92
2022-09-05T09:32:07.112Z,1.73
2022-09-05T09:35:00.895Z,1.98
2022-09-05T09:37:51.727Z,1.70
2022-09-05T09:40:50.209Z,1.80
2022-09-05T09:43:35.799Z,1.85
2022-09-05T09:46:18.151Z,1.60
2022-09-05T09:49:00.784Z,1.63
2022-09-05T09:51:30.418Z,1.75
2022-09-05T09:54:09.006Z,1.60
2022-09-05T09:57:11.283Z,1.70
2022-09-05T10:00:08.806Z,1.60
2022-09-05T10:04:31.276Z,2.63
2022-09-05T10:10:38.113Z,1.77
2022-09-05T10:10:49.404Z,1.80
2022-09-05T10:12:08.791Z,2.03
2022-09-05T10:15:30.556Z,2.00
2022-09-05T10:18:08.100Z,1.83
2022-09-05T10:21:17.049Z,1.85
2022-09-05T10:24:03.162Z,2.00
2022-09-05T10:26:48.437Z,2.00
2022-09-05T10:29:54.353Z,1.75
2022-09-05T10:35:04.487Z,2.33
2022-09-05T10:35:31.317Z,2.20
2022-09-05T10:38:10.319Z,2.08
2022-09-05T10:41:06.679Z,1.90
2022-09-05T10:43:31.127Z,1.88
2022-09-05T10:45:58.107Z,2.00
2022-09-05T10:48:46.428Z,1.90
2022-09-05T10:51:27.214Z,2.00
2022-09-05T10:54:20.069Z,2.13
2022-09-05T10:57:01.776Z,1.98
2022-09-05T11:02:22.306Z,1.80
2022-09-05T11:02:38.292Z,1.60
2022-09-05T11:05:25.102Z,2.08
2022-09-05T11:08:04.165Z,1.65
2022-09-05T11:10:36.034Z,1.80
2022-09-05T11:13:15.645Z,1.95
2022-09-05T11:16:13.801Z,1.88
2022-09-05T11:18:58.509Z,1.70
2022-09-05T11:21:43.828Z,1.98
2022-09-05T11:24:32.926Z,1.70
2022-09-05T11:27:29.731Z,1.65
2022-09-05T11:30:03.202Z,1.70
2022-09-05T11:37:34.225Z,1.90
2022-09-05T11:40:03.623Z,1.60
2022-09-05T11:40:04.428Z,1.75
2022-09-05T11:41:32.895Z,1.95
2022-09-05T11:44:26.071Z,1.58
2022-09-05T11:47:43.681Z,2.00
2022-09-05T11:50:49.150Z,1.77
2022-09-05T11:53:50.873Z,1.60
2022-09-05T11:56:50.950Z,2.30
2022-09-05T11:59:34.845Z,1.83
2022-09-05T12:02:16.634Z,1.70
2022-09-05T12:05:49.441Z,1.55
2022-09-05T12:08:20.934Z,1.70
2022-09-05T12:11:01.507Z,1.70
2022-09-05T12:13:37.340Z,1.63
2022-09-05T12:16:37.607Z,1.67
2022-09-05T12:19:20.147Z,1.33
2022-09-05T12:25:25.594Z,1.67
2022-09-05T12:29:09.638Z,1.40
2022-09-05T12:32:34.324Z,1.48
2022-09-05T12:36:08.779Z,1.60
2022-09-05T12:40:43.517Z,1.63
2022-09-05T12:41:34.083Z,1.75
2022-09-05T12:42:10.668Z,1.50
2022-09-05T12:43:36.712Z,1.20
2022-09-05T12:46:24.329Z,1.40
2022-09-05T12:49:36.131Z,1.42
2022-09-05T12:52:20.145Z,2.83
2022-09-05T12:54:56.893Z,2.85
2022-09-05T13:00:03.968Z,1.25
2022-09-05T13:03:13.535Z,1.15
2022-09-05T13:03:29.700Z,1.10
2022-09-05T13:06:24.998Z,1.10
2022-09-05T13:09:00.321Z,1.15
2022-09-05T13:14:52.377Z,1.10
2022-09-05T13:14:54.757Z,0.90
2022-09-05T13:17:14.128Z,1.17
2022-09-05T13:19:47.420Z,1.00
2022-09-05T13:22:17.643Z,1.00
2022-09-05T13:24:50.515Z,1.20
2022-09-05T13:27:31.885Z,1.20
2022-09-05T13:31:56.347Z,1.13
2022-09-05T13:37:58.668Z,1.33
2022-09-05T13:38:03.240Z,1.65
2022-09-05T13:39:06.043Z,1.13
2022-09-05T13:41:44.025Z,1.45
2022-09-05T13:44:25.352Z,2.05
2022-09-05T13:47:28.856Z,2.10
2022-09-05T13:50:20.313Z,1.42
2022-09-05T13:53:04.916Z,1.00
2022-09-05T13:55:41.899Z,0.95
2022-09-05T13:58:25.150Z,1.00
2022-09-05T14:01:17.631Z,1.05
2022-09-05T14:05:05.445Z,1.00
2022-09-05T14:10:20.357Z,1.33
2022-09-05T14:13:01.242Z,1.20
2022-09-05T14:15:37.259Z,1.33
2022-09-05T14:18:34.161Z,1.20
2022-09-05T14:21:15.905Z,1.20
2022-09-05T14:24:00.090Z,1.20
2022-09-05T14:26:57.334Z,1.10
2022-09-05T14:29:32.599Z,1.23
2022-09-05T14:37:45.867Z,1.15
2022-09-05T14:37:55.110Z,1.23
2022-09-05T14:38:19.668Z,1.10
2022-09-05T14:41:28.263Z,1.30
2022-09-05T14:44:34.052Z,1.20
2022-09-05T14:47:38.491Z,1.13
2022-09-05T14:50:17.965Z,1.27
2022-09-05T14:56:32.047Z,1.20
2022-09-05T15:02:41.333Z,1.20
2022-09-05T15:02:53.585Z,1.20
2022-09-05T15:05:11.222Z,1.10
2022-09-05T15:07:41.908Z,1.30
2022-09-05T15:12:18.006Z,1.30
2022-09-05T15:13:18.265Z,1.35
2022-09-05T15:16:02.888Z,1.60
2022-09-05T15:18:56.149Z,1.98
2022-09-05T15:21:36.562Z,1.13
2022-09-05T15:24:03.757Z,0.98
2022-09-05T15:26:36.120Z,1.20
2022-09-05T15:29:13.078Z,1.30
2022-09-05T15:31:42.047Z,1.35
2022-09-05T15:34:26.510Z,1.33
2022-09-05T15:36:55.171Z,1.10
2022-09-05T15:39:36.105Z,1.30
2022-09-05T15:42:19.414Z,1.25
2022-09-05T15:45:08.742Z,1.10
2022-09-05T15:47:34.824Z,1.23
2022-09-05T15:50:05.959Z,1.02
2022-09-05T15:52:48.482Z,1.10
2022-09-05T15:55:26.634Z,1.25
2022-09-05T15:57:59.845Z,1.38
2022-09-05T16:00:51.254Z,1.13
2022-09-05T16:06:45.487Z,1.13
2022-09-05T16:10:33.767Z,0.95
2022-09-05T16:10:48.418Z,1.30
2022-09-05T16:12:15.894Z,1.20
2022-09-05T16:14:49.917Z,1.27
2022-09-05T16:23:19.495Z,1.20
2022-09-05T16:23:23.590Z,1.27
2022-09-05T16:23:45.897Z,1.33
2022-09-05T16:26:25.490Z,1.20
2022-09-05T16:29:02.852Z,1.55
2022-09-05T16:31:38.764Z,1.55
2022-09-05T16:34:13.109Z,1.17
2022-09-05T16:36:56.381Z,1.23
2022-09-05T16:39:59.066Z,1.38
2022-09-05T16:42:46.670Z,1.08
2022-09-05T16:45:23.384Z,1.20
2022-09-05T16:48:06.633Z,1.50
2022-09-05T16:50:50.135Z,1.48
2022-09-05T16:53:30.764Z,1.20
2022-09-05T16:56:03.100Z,1.98
2022-09-05T16:58:56.326Z,1.80
2022-09-05T17:01:38.212Z,3.67
2022-09-05T17:04:20.811Z,2.50
2022-09-05T17:06:58.836Z,2.40
2022-09-05T17:09:28.466Z,1.67
2022-09-05T17:12:01.321Z,4.78
2022-09-05T17:14:34.809Z,1.92
2022-09-05T17:18:18.148Z,1.40
2022-09-05T17:20:06.967Z,1.50
2022-09-05T17:27:42.823Z,2.00
2022-09-05T17:29:27.400Z,1.80
2022-09-05T17:29:33.325Z,2.50
2022-09-05T17:31:57.920Z,2.13
2022-09-05T17:34:37.569Z,2.03
2022-09-05T17:37:26.137Z,2.30
2022-09-05T17:40:25.121Z,2.30
2022-09-05T17:42:58.740Z,2.53
2022-09-05T17:45:50.742Z,2.58
2022-09-05T17:48:49.290Z,2.70
2022-09-05T17:51:38.141Z,2.22
2022-09-05T17:54:07.752Z,2.95
2022-09-05T17:56:39.867Z,2.45
2022-09-05T17:59:25.271Z,2.70
2022-09-05T18:02:06.955Z,2.63
2022-09-05T18:04:53.870Z,2.83
2022-09-05T18:07:26.698Z,2.90
2022-09-05T18:15:36.170Z,3.22
2022-09-05T18:18:08.435Z,3.15
2022-09-05T18:20:39.462Z,2.70
2022-09-05T18:23:39.652Z,3.30
2022-09-05T18:26:22.725Z,3.00
2022-09-05T18:28:59.751Z,3.20
2022-09-05T18:31:41.497Z,3.20
2022-09-05T18:34:19.056Z,3.22
2022-09-05T18:36:50.922Z,3.20
2022-09-05T18:39:24.386Z,3.67
2022-09-05T18:42:26.307Z,3.38
2022-09-05T18:44:59.707Z,2.95
2022-09-05T18:47:33.762Z,3.45
2022-09-05T18:50:25.310Z,3.50
2022-09-05T18:53:09.395Z,3.17
2022-09-05T18:56:09.685Z,3.53
2022-09-05T18:59:10.723Z,3.28
2022-09-05T19:01:58.821Z,3.10
2022-09-05T19:04:34.512Z,3.00
2022-09-05T19:07:16.604Z,3.10
2022-09-05T19:10:35.240Z,3.08
2022-09-05T19:13:15.654Z,3.80
2022-09-05T19:16:06.632Z,3.42
2022-09-05T19:19:16.466Z,2.92
2022-09-05T19:22:02.412Z,3.17
2022-09-05T19:24:44.803Z,3.50
2022-09-05T19:28:48.562Z,2.78
2022-09-05T19:36:56.961Z,3.08
2022-09-05T19:37:08.195Z,3.20
2022-09-05T19:37:12.156Z,3.10
2022-09-05T19:39:57.701Z,2.85
2022-09-05T19:47:28.197Z,3.15
2022-09-05T19:47:42.605Z,3.58
2022-09-05T19:47:55.488Z,2.80
2022-09-05T19:50:20.868Z,4.03
2022-09-05T19:52:53.363Z,3.00
2022-09-05T19:55:26.021Z,2.92
2022-09-05T19:58:20.145Z,3.10
2022-09-05T20:00:46.090Z,3.08
2022-09-05T20:03:27.517Z,3.28
2022-09-05T20:05:54.534Z,3.03
2022-09-05T20:08:33.647Z,3.33
2022-09-05T20:11:02.974Z,3.28
2022-09-05T20:13:30.184Z,3.47
2022-09-05T20:15:57.546Z,2.92
2022-09-05T20:18:34.077Z,3.30
2022-09-05T20:21:09.437Z,3.33
2022-09-05T20:23:46.000Z,3.50
2022-09-05T20:26:12.878Z,3.65
2022-09-05T20:28:42.063Z,3.15
2022-09-05T20:31:19.653Z,3.72
2022-09-05T20:33:52.271Z,3.33
2022-09-05T20:43:14.666Z,3.28
2022-09-05T20:43:15.202Z,3.42
2022-09-05T20:43:30.600Z,3.25
2022-09-05T20:45:46.072Z,3.28
2022-09-05T20:54:09.364Z,3.67
2022-09-05T20:54:21.520Z,3.22
2022-09-05T20:54:32.143Z,3.40
2022-09-05T20:56:56.669Z,3.53
2022-09-05T20:59:32.824Z,3.20
2022-09-05T21:02:06.723Z,3.30
2022-09-05T21:04:38.696Z,3.65
2022-09-05T21:07:21.763Z,3.03
2022-09-05T21:09:55.003Z,3.40
2022-09-05T21:12:28.264Z,3.20
2022-09-05T21:15:01.818Z,3.45
2022-09-05T21:17:29.818Z,3.40
2022-09-05T21:19:59.924Z,3.67
2022-09-05T21:22:43.577Z,3.30
2022-09-05T21:25:22.808Z,3.05
2022-09-05T21:27:58.893Z,3.17
2022-09-05T21:30:37.947Z,3.70
2022-09-05T21:33:15.974Z,3.75
2022-09-05T21:35:48.755Z,3.90
2022-09-05T21:38:18.522Z,4.03
2022-09-05T21:41:04.117Z,3.30
2022-09-05T21:47:39.994Z,3.17
2022-09-05T21:47:47.980Z,3.50
2022-09-05T21:49:08.986Z,3.40
2022-09-05T21:51:37.461Z,3.65
2022-09-05T21:59:20.899Z,3.70
2022-09-05T21:59:28.920Z,3.90
2022-09-05T21:59:58.135Z,3.88
2022-09-05T22:02:34.632Z,3.88
2022-09-05T22:05:03.618Z,3.42
2022-09-05T22:07:34.756Z,3.80
2022-09-05T22:10:06.294Z,3.60
2022-09-05T22:12:36.004Z,4.07
2022-09-05T22:15:27.231Z,3.80
2022-09-05T22:17:57.033Z,3.63
2022-09-05T22:20:44.473Z,3.75
2022-09-05T22:23:12.071Z,3.83
2022-09-05T22:25:39.636Z,3.85
2022-09-05T22:28:28.822Z,3.63
2022-09-05T22:31:07.517Z,3.90
2022-09-05T22:33:35.288Z,3.97
2022-09-05T22:36:02.347Z,3.78
2022-09-05T22:38:29.185Z,3.45
2022-09-05T22:40:57.482Z,3.95
2022-09-05T22:43:25.073Z,3.75
2022-09-05T22:45:56.364Z,4.00
2022-09-05T22:48:23.906Z,3.67
2022-09-05T22:50:50.845Z,3.72
2022-09-05T22:53:17.738Z,3.97
2022-09-05T22:55:44.724Z,3.90
2022-09-05T22:58:13.904Z,3.55
2022-09-05T23:00:41.722Z,3.80
2022-09-05T23:03:08.597Z,3.83
2022-09-05T23:05:35.686Z,3.88
2022-09-05T23:08:04.187Z,4.05
2022-09-05T23:10:31.661Z,4.10
2022-09-05T23:12:59.042Z,4.00
2022-09-05T23:15:26.436Z,3.92
2022-09-05T23:17:58.705Z,3.90
2022-09-05T23:20:28.010Z,3.88
2022-09-05T23:22:55.385Z,4.25
2022-09-05T23:25:23.128Z,3.97
2022-09-05T23:27:50.366Z,4.37
2022-09-05T23:30:17.681Z,4.13
2022-09-05T23:32:49.550Z,4.32
2022-09-05T23:35:17.313Z,3.85
2022-09-05T23:37:45.130Z,3.80
2022-09-05T23:40:17.975Z,4.15
2022-09-05T23:42:55.781Z,4.30
2022-09-05T23:45:23.769Z,4.23
2022-09-05T23:47:51.321Z,4.40
2022-09-05T23:50:19.500Z,4.38
2022-09-05T23:52:47.108Z,3.90
2022-09-05T23:55:16.463Z,4.30
2022-09-05T23:57:43.953Z,4.25
